createdAt,value
2023-01-02T00:00:24.619Z,3.50
2023-01-02T00:05:30.149Z,3.70
2023-01-02T00:10:35.691Z,3.70
2023-01-02T00:15:41.389Z,4.97
2023-01-02T00:20:46.851Z,7.40
2023-01-02T00:25:52.239Z,4.50
2023-01-02T00:30:57.834Z,5.17
2023-01-02T00:36:08.588Z,4.30
2023-01-02T00:41:13.971Z,4.87
2023-01-02T00:46:19.544Z,5.27
2023-01-02T00:51:25.075Z,6.73
2023-01-02T00:56:30.471Z,3.67
2023-01-02T01:01:36.229Z,4.17
2023-01-02T01:06:42.029Z,4.53
2023-01-02T01:11:47.566Z,5.43
2023-01-02T01:16:52.948Z,3.70
2023-01-02T01:21:58.338Z,6.97
2023-01-02T01:27:03.791Z,5.10
2023-01-02T01:32:09.260Z,6.93
2023-01-02T01:37:15.098Z,6.33
2023-01-02T01:42:20.827Z,6.03
2023-01-02T01:47:44.070Z,9.13
2023-01-02T01:53:04.774Z,6.13
2023-01-02T01:58:15.543Z,6.27
2023-01-02T02:03:23.889Z,6.70
2023-01-02T02:08:44.157Z,7.63
2023-01-02T02:13:50.355Z,5.90
2023-01-02T02:19:21.948Z,6.70
2023-01-02T02:24:48.712Z,8.67
2023-01-02T02:30:12.320Z,7.37
2023-01-02T02:35:29.536Z,6.03
2023-01-02T02:40:57.747Z,6.90
2023-01-02T02:46:12.184Z,6.47
2023-01-02T02:51:23.842Z,4.57
2023-01-02T02:56:30.989Z,8.23
2023-01-02T03:01:38.174Z,5.23
2023-01-02T03:07:05.133Z,5.10
2023-01-02T03:12:16.810Z,7.80
2023-01-02T03:17:32.002Z,6.00
2023-01-02T03:22:40.501Z,9.90
2023-01-02T03:27:48.952Z,6.67
2023-01-02T03:32:57.386Z,5.77
2023-01-02T03:38:06.528Z,9.50
2023-01-02T03:43:17.658Z,8.97
2023-01-02T03:48:50.287Z,7.20
2023-01-02T03:53:56.049Z,6.03
2023-01-02T03:59:25.433Z,5.17
2023-01-02T04:04:58.116Z,7.83
2023-01-02T04:10:05.352Z,8.03
2023-01-02T04:15:16.159Z,5.33
2023-01-02T04:20:24.606Z,5.40
2023-01-02T04:25:33.019Z,8.37
2023-01-02T04:30:41.492Z,6.13
2023-01-02T04:35:47.059Z,3.30
2023-01-02T04:40:52.881Z,8.77
2023-01-02T04:45:58.360Z,6.90
2023-01-02T04:51:03.930Z,5.20
2023-01-02T04:56:09.707Z,6.93
2023-01-02T05:01:17.894Z,5.40
2023-01-02T05:06:23.380Z,5.60
2023-01-02T05:11:28.920Z,7.80
2023-01-02T05:16:34.379Z,5.60
2023-01-02T05:21:58.132Z,5.77
2023-01-02T05:27:03.664Z,5.70
2023-01-02T05:32:09.115Z,6.77
2023-01-02T05:37:14.576Z,11.70
2023-01-02T05:42:20.039Z,6.87
2023-01-02T05:47:26.439Z,4.80
2023-01-02T05:52:31.827Z,6.50
2023-01-02T05:57:37.360Z,7.70
2023-01-02T06:02:47.666Z,5.07
2023-01-02T06:07:50.162Z,8.43
2023-01-02T06:12:55.619Z,7.30
2023-01-02T06:18:01.460Z,4.57
2023-01-02T06:23:07.047Z,7.47
2023-01-02T06:28:12.438Z,6.77
2023-01-02T06:33:17.896Z,7.47
2023-01-02T06:38:23.280Z,4.50
2023-01-02T06:43:30.641Z,7.13
2023-01-02T06:48:36.514Z,5.33
2023-01-02T06:53:43.729Z,6.80
2023-01-02T06:58:49.644Z,8.53
2023-01-02T07:03:55.977Z,6.63
2023-01-02T07:09:01.483Z,7.37
2023-01-02T07:14:08.416Z,4.57
2023-01-02T07:19:13.881Z,5.47
2023-01-02T07:24:19.278Z,6.20
2023-01-02T07:29:24.764Z,6.43
2023-01-02T07:34:31.574Z,6.40
2023-01-02T07:39:37.023Z,5.17
2023-01-02T07:44:42.490Z,5.47
2023-01-02T07:50:01.750Z,7.63
2023-01-02T07:55:08.149Z,4.43
2023-01-02T08:00:14.536Z,6.17
2023-01-02T08:05:20.396Z,4.47
2023-01-02T08:10:25.927Z,3.93
2023-01-02T08:15:31.447Z,4.57
2023-01-02T08:20:36.909Z,4.83
2023-01-02T08:25:43.541Z,4.30
2023-01-02T08:30:49.051Z,6.83
2023-01-02T08:35:55.722Z,2.90
2023-01-02T08:41:01.384Z,3.70
2023-01-02T08:46:11.084Z,5.87
2023-01-02T08:51:16.775Z,4.20
2023-01-02T08:56:28.192Z,3.87
2023-01-02T09:01:34.816Z,6.53
2023-01-02T09:06:40.693Z,3.93
2023-01-02T09:11:52.530Z,4.33
2023-01-02T09:16:58.231Z,4.90
2023-01-02T09:22:04.384Z,5.37
2023-01-02T09:27:09.913Z,4.47
2023-01-02T09:32:15.382Z,4.20
2023-01-02T09:37:20.846Z,5.97
2023-01-02T09:42:26.603Z,4.77
2023-01-02T09:47:33.007Z,2.77
2023-01-02T09:52:47.490Z,4.53
2023-01-02T09:57:55.920Z,3.60
2023-01-02T10:03:26.736Z,6.57
2023-01-02T10:08:54.947Z,5.87
2023-01-02T10:14:20.516Z,2.97
2023-01-02T10:19:22.085Z,5.17
2023-01-02T10:24:48.617Z,5.63
2023-01-02T10:29:57.203Z,3.17
2023-01-02T10:35:08.352Z,3.63
2023-01-02T10:40:13.986Z,3.43
2023-01-02T10:45:19.613Z,2.63
2023-01-02T10:50:28.135Z,5.23
2023-01-02T10:55:36.867Z,3.13
2023-01-02T11:00:42.388Z,5.53
2023-01-02T11:06:02.093Z,4.57
2023-01-02T11:11:05.262Z,4.00
2023-01-02T11:16:14.613Z,4.73
2023-01-02T11:21:28.853Z,4.73
2023-01-02T11:26:36.152Z,4.30
2023-01-02T11:31:58.465Z,3.73
2023-01-02T11:37:06.984Z,4.17
2023-01-02T11:42:36.049Z,4.17
2023-01-02T11:47:50.779Z,4.15
2023-01-02T11:52:59.282Z,2.63
2023-01-02T11:58:10.701Z,4.23
2023-01-02T12:03:30.026Z,3.97
2023-01-02T12:08:53.376Z,4.33
2023-01-02T12:14:16.912Z,3.10
2023-01-02T12:19:42.262Z,3.87
2023-01-02T12:24:59.962Z,5.33
2023-01-02T12:30:20.506Z,3.87
2023-01-02T12:35:36.011Z,3.70
2023-01-02T12:41:13.435Z,3.63
2023-01-02T12:46:30.755Z,3.27
2023-01-02T12:51:47.481Z,4.23
2023-01-02T12:57:07.854Z,2.17
2023-01-02T13:02:32.697Z,2.10
2023-01-02T13:07:45.875Z,2.77
2023-01-02T13:12:52.417Z,4.23
2023-01-02T13:18:21.995Z,3.10
2023-01-02T13:23:36.056Z,3.60
2023-01-02T13:28:44.588Z,2.50
2023-01-02T13:33:52.717Z,3.40
2023-01-02T13:39:01.289Z,3.40
2023-01-02T13:44:07.114Z,4.47
2023-01-02T13:49:15.628Z,4.33
2023-01-02T13:54:21.654Z,4.73
2023-01-02T13:59:41.928Z,3.97
2023-01-02T14:04:38.581Z,3.17
2023-01-02T14:10:05.205Z,2.50
2023-01-02T14:15:13.689Z,5.87
2023-01-02T14:20:24.743Z,4.90
2023-01-02T14:25:32.464Z,3.33
2023-01-02T14:30:40.490Z,4.57
2023-01-02T14:35:58.629Z,4.57
2023-01-02T14:41:21.916Z,3.50
2023-01-02T14:46:29.227Z,3.50
2023-01-02T14:51:46.659Z,3.80
2023-01-02T14:56:58.087Z,2.57
2023-01-02T15:02:09.828Z,3.97
2023-01-02T15:07:24.549Z,4.50
2023-01-02T15:12:50.283Z,5.73
2023-01-02T15:17:58.730Z,5.37
2023-01-02T15:23:05.361Z,4.47
2023-01-02T15:28:34.777Z,6.10
2023-01-02T15:33:40.726Z,4.20
2023-01-02T15:38:46.858Z,4.63
2023-01-02T15:44:12.670Z,3.73
2023-01-02T15:49:18.826Z,6.37
2023-01-02T15:54:24.709Z,3.10
2023-01-02T15:59:32.749Z,3.50
2023-01-02T16:04:38.206Z,3.27
2023-01-02T16:09:46.646Z,3.23
2023-01-02T16:14:55.891Z,1.93
2023-01-02T16:20:11.926Z,2.17
2023-01-02T16:25:26.368Z,2.30
2023-01-02T16:30:40.825Z,2.10
2023-01-02T16:35:48.195Z,1.93
2023-01-02T16:41:05.192Z,3.53
2023-01-02T16:46:14.037Z,2.07
2023-01-02T16:51:19.611Z,1.13
2023-01-02T16:56:25.156Z,2.20
2023-01-02T17:01:31.569Z,1.37
2023-01-02T17:06:37.361Z,2.07
2023-01-02T17:11:44.916Z,2.50
2023-01-02T17:16:50.437Z,1.77
2023-01-02T17:21:55.958Z,2.03
2023-01-02T17:27:01.587Z,1.43
2023-01-02T17:32:07.410Z,2.03
2023-01-02T17:37:12.948Z,0.87
2023-01-02T17:42:18.420Z,0.63
2023-01-02T17:47:58.298Z,0.87
2023-01-02T17:52:32.001Z,0.50
2023-01-02T17:57:39.637Z,1.13
2023-01-02T18:02:45.372Z,0.63
2023-01-02T18:07:51.145Z,1.27
2023-01-02T18:12:56.668Z,0.77
2023-01-02T18:18:05.114Z,0.50
2023-01-02T18:23:15.138Z,1.33
2023-01-02T18:28:26.185Z,1.67
2023-01-02T18:33:33.203Z,1.47
2023-01-02T18:38:41.600Z,1.60
2023-01-02T18:43:49.791Z,0.93
2023-01-02T18:48:55.303Z,0.93
2023-01-02T18:54:00.937Z,0.60
2023-01-02T18:59:25.976Z,0.80
2023-01-02T19:04:34.447Z,1.00
2023-01-02T19:09:40.079Z,0.60
2023-01-02T19:14:46.015Z,0.60
2023-01-02T19:19:52.151Z,1.03
2023-01-02T19:25:05.222Z,1.63
2023-01-02T19:30:31.139Z,2.27
2023-01-02T19:35:40.036Z,1.13
2023-01-02T19:40:45.502Z,0.77
2023-01-02T19:45:51.434Z,2.10
2023-01-02T19:50:57.079Z,1.27
2023-01-02T19:56:02.498Z,1.13
2023-01-02T20:01:08.183Z,1.43
2023-01-02T20:06:13.672Z,1.40
2023-01-02T20:11:26.368Z,1.27
2023-01-02T20:16:32.171Z,1.10
2023-01-02T20:21:37.636Z,0.97
2023-01-02T20:26:43.117Z,1.07
2023-01-02T20:31:49.317Z,1.80
2023-01-02T20:36:55.042Z,1.63
2023-01-02T20:42:00.546Z,0.67
2023-01-02T20:47:06.172Z,0.90
2023-01-02T20:52:11.933Z,0.80
2023-01-02T20:57:18.511Z,0.90
2023-01-02T21:02:24.245Z,1.60
2023-01-02T21:07:29.876Z,0.60
2023-01-02T21:12:53.063Z,1.67
2023-01-02T21:17:58.548Z,1.60
2023-01-02T21:23:04.325Z,1.33
2023-01-02T21:28:11.589Z,0.97
2023-01-02T21:33:19.521Z,1.20
2023-01-02T21:38:26.619Z,0.77
2023-01-02T21:43:32.131Z,1.60
2023-01-02T21:48:38.355Z,1.33
2023-01-02T21:53:44.225Z,1.80
2023-01-02T21:58:49.873Z,0.93
2023-01-02T22:03:57.093Z,1.20
2023-01-02T22:09:03.208Z,1.00
2023-01-02T22:14:08.819Z,1.20
2023-01-02T22:19:14.503Z,1.93
2023-01-02T22:24:22.950Z,1.20
2023-01-02T22:30:00.556Z,0.83
2023-01-02T22:34:38.752Z,0.70
2023-01-02T22:39:44.281Z,0.30
2023-01-02T22:44:51.125Z,1.03
2023-01-02T22:49:57.557Z,0.97
2023-01-02T22:55:09.020Z,0.90
2023-01-02T23:00:15.305Z,0.73
2023-01-02T23:05:22.332Z,1.63
2023-01-02T23:10:27.849Z,1.13
2023-01-02T23:15:33.322Z,1.83
2023-01-02T23:20:38.764Z,0.80
2023-01-02T23:25:44.907Z,0.53
2023-01-02T23:30:50.303Z,1.93
2023-01-02T23:35:55.847Z,2.70
2023-01-02T23:41:04.665Z,0.97
2023-01-02T23:46:10.121Z,1.30
2023-01-02T23:51:15.845Z,3.70
2023-01-02T23:56:27.237Z,1.03
